createdAt,value
2023-08-31T00:02:23.156Z,99064.38
2023-08-31T00:04:56.513Z,99059.81
2023-08-31T00:07:29.239Z,99056.95
2023-08-31T00:10:01.809Z,99051.41
2023-08-31T00:12:34.422Z,99051.78
2023-08-31T00:15:10.234Z,99053.09
2023-08-31T00:17:44.051Z,99056.05
2023-08-31T00:20:16.943Z,99057.72
2023-08-31T00:22:49.545Z,99057.74
2023-08-31T00:25:22.090Z,99058.98
2023-08-31T00:27:55.988Z,99058.13
2023-08-31T00:30:30.803Z,99060.61
2023-08-31T00:33:03.415Z,99058.32
2023-08-31T00:35:37.059Z,99054.35
2023-08-31T00:38:09.737Z,99058.05
2023-08-31T00:40:45.846Z,99058.05
2023-08-31T00:43:19.175Z,99059.23
2023-08-31T00:45:54.075Z,99063.89
2023-08-31T00:48:27.687Z,99062.25
2023-08-31T00:51:02.201Z,99064.20
2023-08-31T00:53:36.198Z,99066.97
2023-08-31T00:56:09.343Z,99066.39
2023-08-31T00:58:42.046Z,99068.46
2023-08-31T01:01:21.506Z,99072.05
2023-08-31T01:04:07.435Z,99071.67
2023-08-31T01:06:52.184Z,99073.55
2023-08-31T01:09:38.062Z,99071.88
2023-08-31T01:12:13.963Z,99077.66
2023-08-31T01:14:50.268Z,99080.08
2023-08-31T01:17:25.188Z,99082.23
2023-08-31T01:19:58.994Z,99085.19
2023-08-31T01:22:41.507Z,99089.67
2023-08-31T01:25:14.900Z,99086.27
2023-08-31T01:27:47.462Z,99086.78
2023-08-31T01:30:21.860Z,99090.10
2023-08-31T01:32:54.339Z,99088.88
2023-08-31T01:35:28.056Z,99089.34
2023-08-31T01:38:06.117Z,99096.98
2023-08-31T01:40:42.500Z,99099.02
2023-08-31T01:43:16.373Z,99096.69
2023-08-31T01:45:50.438Z,99100.76
2023-08-31T01:48:22.884Z,99099.25
2023-08-31T01:50:55.308Z,99097.46
2023-08-31T01:53:27.789Z,99097.41
2023-08-31T01:56:00.333Z,99098.36
2023-08-31T01:58:32.849Z,99103.57
2023-08-31T02:01:05.237Z,99106.39
2023-08-31T02:03:38.031Z,99110.17
2023-08-31T02:06:10.874Z,99114.94
2023-08-31T02:08:48.744Z,99114.89
2023-08-31T02:11:24.049Z,99114.99
2023-08-31T02:13:58.134Z,99115.03
2023-08-31T02:16:30.613Z,99118.29
2023-08-31T02:19:03.105Z,99120.33
2023-08-31T02:21:35.826Z,99122.66
2023-08-31T02:24:10.753Z,99125.61
2023-08-31T02:26:47.202Z,99121.48
2023-08-31T02:29:20.414Z,99124.05
2023-08-31T02:31:52.837Z,99125.70
2023-08-31T02:34:25.555Z,99132.36
2023-08-31T02:36:58.417Z,99131.38
2023-08-31T02:39:30.887Z,99134.00
2023-08-31T02:42:03.432Z,99136.07
2023-08-31T02:44:36.012Z,99132.17
2023-08-31T02:47:08.652Z,99133.45
2023-08-31T02:49:41.323Z,99133.79
2023-08-31T02:52:13.893Z,99134.42
2023-08-31T02:54:46.535Z,99134.58
2023-08-31T02:57:21.066Z,99138.94
2023-08-31T02:59:57.314Z,99140.67
2023-08-31T03:02:30.042Z,99139.98
2023-08-31T03:05:03.050Z,99140.58
2023-08-31T03:07:35.972Z,99145.70
2023-08-31T03:10:10.154Z,99148.46
2023-08-31T03:12:42.588Z,99146.96
2023-08-31T03:15:15.170Z,99147.16
2023-08-31T03:17:47.961Z,99151.15
2023-08-31T03:20:21.912Z,99153.89
2023-08-31T03:22:55.012Z,99154.20
2023-08-31T03:25:29.656Z,99155.42
2023-08-31T03:28:00.538Z,99158.80
2023-08-31T03:30:33.284Z,99159.02
2023-08-31T03:33:06.980Z,99160.73
2023-08-31T03:35:39.752Z,99157.63
2023-08-31T03:38:12.231Z,99159.60
2023-08-31T03:40:45.525Z,99159.59
2023-08-31T03:43:17.985Z,99166.39
2023-08-31T03:45:51.831Z,99170.94
2023-08-31T03:48:24.920Z,99174.20
2023-08-31T03:50:58.507Z,99178.17
2023-08-31T03:53:30.965Z,99180.52
2023-08-31T03:56:05.853Z,99182.32
2023-08-31T03:58:38.792Z,99184.48
2023-08-31T04:01:12.007Z,99187.55
2023-08-31T04:03:45.757Z,99190.77
2023-08-31T04:06:19.174Z,99195.05
2023-08-31T04:08:52.581Z,99197.55
2023-08-31T04:11:27.307Z,99197.48
2023-08-31T04:14:00.040Z,99197.52
2023-08-31T04:16:34.366Z,99197.41
2023-08-31T04:19:07.159Z,99199.23
2023-08-31T04:21:39.934Z,99199.39
2023-08-31T04:24:12.747Z,99200.04
2023-08-31T04:26:49.257Z,99200.40
2023-08-31T04:29:21.833Z,99200.00
2023-08-31T04:31:55.046Z,99202.32
2023-08-31T04:34:28.291Z,99203.17
2023-08-31T04:37:00.800Z,99206.73
2023-08-31T04:39:33.213Z,99205.19
2023-08-31T04:42:06.396Z,99210.70
2023-08-31T04:44:39.540Z,99216.44
2023-08-31T04:47:12.882Z,99214.47
2023-08-31T04:49:45.608Z,99215.07
2023-08-31T04:52:18.316Z,99214.30
2023-08-31T04:54:50.647Z,99218.77
2023-08-31T04:57:23.146Z,99219.79
2023-08-31T04:59:55.736Z,99224.71
2023-08-31T05:02:28.270Z,99228.47
2023-08-31T05:05:00.918Z,99233.68
2023-08-31T05:07:33.616Z,99234.70
2023-08-31T05:10:06.666Z,99241.66
2023-08-31T05:12:39.654Z,99244.80
2023-08-31T05:15:13.951Z,99245.94
2023-08-31T05:17:46.408Z,99243.24
2023-08-31T05:20:19.096Z,99240.13
2023-08-31T05:22:51.547Z,99239.54
2023-08-31T05:25:24.604Z,99244.80
2023-08-31T05:27:58.894Z,99238.77
2023-08-31T05:30:31.309Z,99240.91
2023-08-31T05:33:04.786Z,99240.31
2023-08-31T05:35:39.933Z,99245.39
2023-08-31T05:38:13.543Z,99246.74
2023-08-31T05:40:47.400Z,99246.15
2023-08-31T05:43:20.327Z,99244.86
2023-08-31T05:45:53.061Z,99248.04
2023-08-31T05:48:25.754Z,99253.06
2023-08-31T05:50:58.830Z,99250.91
2023-08-31T05:53:31.196Z,99247.18
2023-08-31T05:56:06.172Z,99252.71
2023-08-31T05:58:40.168Z,99254.28
2023-08-31T06:01:12.602Z,99260.73
2023-08-31T06:03:45.044Z,99262.98
2023-08-31T06:06:17.994Z,99274.31
2023-08-31T06:08:50.434Z,99279.54
2023-08-31T06:11:23.442Z,99281.19
2023-08-31T06:13:56.081Z,99279.48
2023-08-31T06:16:29.523Z,99280.95
2023-08-31T06:19:02.250Z,99279.98
2023-08-31T06:21:34.985Z,99281.23
2023-08-31T06:24:11.243Z,99279.98
2023-08-31T06:26:43.828Z,99278.77
2023-08-31T06:29:16.621Z,99279.45
2023-08-31T06:31:49.046Z,99271.70
2023-08-31T06:34:21.541Z,99271.39
2023-08-31T06:36:54.354Z,99273.75
2023-08-31T06:39:27.181Z,99275.35
2023-08-31T06:41:59.932Z,99280.50
2023-08-31T06:44:35.849Z,99278.48
2023-08-31T06:47:08.434Z,99278.77
2023-08-31T06:49:41.154Z,99280.14
2023-08-31T06:52:29.461Z,99278.13
2023-08-31T06:55:04.424Z,99274.42
2023-08-31T06:57:38.090Z,99277.42
2023-08-31T07:00:13.441Z,99279.20
2023-08-31T07:02:46.419Z,99280.96
2023-08-31T07:05:24.290Z,99283.09
2023-08-31T07:07:57.691Z,99277.27
2023-08-31T07:10:30.780Z,99279.78
2023-08-31T07:13:03.377Z,99282.31
2023-08-31T07:15:36.167Z,99275.68
2023-08-31T07:18:08.858Z,99272.19
2023-08-31T07:20:41.694Z,99277.05
2023-08-31T07:23:15.191Z,99282.13
2023-08-31T07:25:48.180Z,99286.36
2023-08-31T07:28:20.661Z,99284.51
2023-08-31T07:31:02.389Z,99287.34
2023-08-31T07:33:36.399Z,99290.75
2023-08-31T07:36:09.795Z,99294.63
2023-08-31T07:38:42.235Z,99300.56
2023-08-31T07:41:14.960Z,99304.66
2023-08-31T07:44:02.650Z,99303.24
2023-08-31T07:46:37.264Z,99314.22
2023-08-31T07:49:10.018Z,99315.91
2023-08-31T07:51:42.501Z,99320.06
2023-08-31T07:54:20.928Z,99316.89
2023-08-31T07:56:53.436Z,99319.03
2023-08-31T07:59:26.524Z,99320.70
2023-08-31T08:01:59.061Z,99319.47
2023-08-31T08:04:32.380Z,99318.73
2023-08-31T08:07:05.212Z,99318.85
2023-08-31T08:09:38.040Z,99320.30
2023-08-31T08:12:12.535Z,99320.88
2023-08-31T08:14:45.095Z,99325.41
2023-08-31T08:17:17.558Z,99326.92
2023-08-31T08:19:50.221Z,99328.98
2023-08-31T08:22:22.577Z,99330.10
2023-08-31T08:24:55.177Z,99325.80
2023-08-31T08:27:27.913Z,99327.31
2023-08-31T08:30:00.387Z,99331.88
2023-08-31T08:32:35.171Z,99329.20
2023-08-31T08:35:08.970Z,99327.15
2023-08-31T08:37:41.697Z,99329.04
2023-08-31T08:40:14.449Z,99333.02
2023-08-31T08:42:49.594Z,99338.32
2023-08-31T08:45:25.656Z,99339.52
2023-08-31T08:47:59.977Z,99340.33
2023-08-31T08:50:35.222Z,99336.61
2023-08-31T08:53:08.554Z,99333.94
2023-08-31T08:55:42.987Z,99336.77
2023-08-31T08:58:15.403Z,99339.66
2023-08-31T09:00:48.843Z,99340.73
2023-08-31T09:03:21.225Z,99352.48
2023-08-31T09:05:53.824Z,99347.41
2023-08-31T09:08:31.793Z,99341.22
2023-08-31T09:11:04.407Z,99343.41
2023-08-31T09:13:36.834Z,99342.51
2023-08-31T09:16:09.316Z,99346.94
2023-08-31T09:18:41.816Z,99351.80
2023-08-31T09:21:15.288Z,99356.92
2023-08-31T09:23:58.353Z,99356.74
2023-08-31T09:26:30.808Z,99360.65
2023-08-31T09:29:03.764Z,99362.81
2023-08-31T09:31:36.197Z,99363.84
2023-08-31T09:34:08.904Z,99362.56
2023-08-31T09:36:41.899Z,99366.31
2023-08-31T09:39:15.256Z,99366.35
2023-08-31T09:41:58.098Z,99369.59
2023-08-31T09:44:30.608Z,99371.42
2023-08-31T09:47:04.701Z,99373.27
2023-08-31T09:49:39.156Z,99375.23
2023-08-31T09:52:13.674Z,99375.33
2023-08-31T09:54:45.188Z,99376.73
2023-08-31T09:57:22.616Z,99380.86
2023-08-31T10:00:03.680Z,99382.89
2023-08-31T10:02:38.990Z,99384.50
2023-08-31T10:05:14.017Z,99385.00
2023-08-31T10:07:47.940Z,99383.95
2023-08-31T10:10:21.756Z,99381.67
2023-08-31T10:12:55.506Z,99384.25
2023-08-31T10:15:34.358Z,99385.45
2023-08-31T10:18:08.692Z,99383.69
2023-08-31T10:20:43.919Z,99383.09
2023-08-31T10:23:17.186Z,99385.88
2023-08-31T10:26:06.744Z,99384.67
2023-08-31T10:28:46.576Z,99386.29
2023-08-31T10:31:21.715Z,99383.76
2023-08-31T10:34:01.562Z,99384.16
2023-08-31T10:36:41.642Z,99382.52
2023-08-31T10:39:18.569Z,99380.27
2023-08-31T10:41:58.309Z,99375.36
2023-08-31T10:44:33.271Z,99374.38
2023-08-31T10:47:07.784Z,99373.45
2023-08-31T10:49:40.220Z,99370.59
2023-08-31T10:52:36.868Z,99374.64
2023-08-31T10:55:14.496Z,99366.11
2023-08-31T10:57:47.026Z,99361.29
2023-08-31T11:00:54.779Z,99352.70
2023-08-31T11:03:27.262Z,99347.88
2023-08-31T11:06:00.960Z,99344.14
2023-08-31T11:08:33.400Z,99342.77
2023-08-31T11:11:06.291Z,99337.45
2023-08-31T11:13:39.371Z,99337.05
2023-08-31T11:16:11.825Z,99334.02
2023-08-31T11:18:44.282Z,99335.70
2023-08-31T11:21:17.744Z,99337.98
2023-08-31T11:23:51.317Z,99332.77
2023-08-31T11:26:23.803Z,99330.57
2023-08-31T11:28:57.944Z,99333.88
2023-08-31T11:31:31.023Z,99331.77
2023-08-31T11:34:03.484Z,99330.91
2023-08-31T11:36:36.898Z,99336.40
2023-08-31T11:39:10.945Z,99334.03
2023-08-31T11:41:44.454Z,99338.42
2023-08-31T11:44:18.117Z,99341.58
2023-08-31T11:46:51.964Z,99340.67
2023-08-31T11:49:25.008Z,99335.02
2023-08-31T11:51:58.338Z,99337.05
2023-08-31T11:54:31.337Z,99337.89
2023-08-31T11:57:04.808Z,99342.38
2023-08-31T11:59:38.688Z,99349.78
2023-08-31T12:02:11.803Z,99354.70
2023-08-31T12:04:47.694Z,99350.08
2023-08-31T12:07:21.774Z,99347.45
2023-08-31T12:09:54.211Z,99351.02
2023-08-31T12:12:27.773Z,99347.08
2023-08-31T12:15:04.986Z,99345.60
2023-08-31T12:17:41.287Z,99344.20
2023-08-31T12:20:15.868Z,99341.73
2023-08-31T12:22:46.763Z,99344.66
2023-08-31T12:25:25.534Z,99349.23
2023-08-31T12:27:58.569Z,99359.04
2023-08-31T12:30:30.934Z,99362.77
2023-08-31T12:33:03.440Z,99355.48
2023-08-31T12:35:35.920Z,99350.48
2023-08-31T12:38:08.407Z,99349.85
2023-08-31T12:40:41.187Z,99346.95
2023-08-31T12:43:14.255Z,99340.81
2023-08-31T12:45:47.104Z,99348.49
2023-08-31T12:48:19.588Z,99373.25
2023-08-31T12:50:51.971Z,99381.77
2023-08-31T12:53:24.865Z,99377.65
2023-08-31T12:55:57.776Z,99382.10
2023-08-31T12:58:30.172Z,99379.10
2023-08-31T13:01:03.490Z,99376.41
2023-08-31T13:03:35.979Z,99378.14
2023-08-31T13:06:08.886Z,99376.33
2023-08-31T13:08:41.707Z,99384.61
2023-08-31T13:11:14.924Z,99392.02
2023-08-31T13:13:47.272Z,99400.74
2023-08-31T13:16:20.284Z,99406.83
2023-08-31T13:18:53.418Z,99404.92
2023-08-31T13:21:26.536Z,99404.92
2023-08-31T13:23:59.249Z,99402.02
2023-08-31T13:26:31.698Z,99398.41
2023-08-31T13:29:05.956Z,99394.20
2023-08-31T13:31:38.962Z,99393.98
2023-08-31T13:34:11.708Z,99394.52
2023-08-31T13:36:44.107Z,99392.58
2023-08-31T13:39:17.580Z,99388.90
2023-08-31T13:41:49.979Z,99391.60
2023-08-31T13:44:23.632Z,99393.60
2023-08-31T13:46:56.099Z,99389.50
2023-08-31T13:49:28.481Z,99386.24
2023-08-31T13:52:01.221Z,99398.17
2023-08-31T13:54:33.997Z,99403.61
2023-08-31T13:57:06.877Z,99406.53
2023-08-31T13:59:39.270Z,99415.35
2023-08-31T14:02:12.057Z,99429.57
2023-08-31T14:04:45.257Z,99433.66
2023-08-31T14:07:18.119Z,99435.89
2023-08-31T14:09:51.798Z,99434.39
2023-08-31T14:12:25.833Z,99428.42
2023-08-31T14:14:58.916Z,99431.13
2023-08-31T14:17:31.279Z,99443.64
2023-08-31T14:20:08.980Z,99451.16
2023-08-31T14:22:44.214Z,99458.84
2023-08-31T14:25:17.269Z,99460.98
2023-08-31T14:27:50.628Z,99463.02
2023-08-31T14:30:23.306Z,99460.54
2023-08-31T14:32:55.950Z,99465.65
2023-08-31T14:35:29.571Z,99464.84
2023-08-31T14:38:01.984Z,99468.05
2023-08-31T14:40:35.456Z,99468.15
2023-08-31T14:43:08.807Z,99468.94
2023-08-31T14:45:42.505Z,99468.90
2023-08-31T14:48:15.131Z,99469.48
2023-08-31T14:50:47.892Z,99469.73
2023-08-31T14:53:20.652Z,99471.25
2023-08-31T14:55:53.930Z,99472.86
2023-08-31T14:58:26.309Z,99472.72
2023-08-31T15:01:00.807Z,99474.36
2023-08-31T15:03:31.997Z,99475.45
2023-08-31T15:06:04.537Z,99481.48
2023-08-31T15:08:42.100Z,99478.02
2023-08-31T15:11:16.334Z,99484.86
2023-08-31T15:13:48.926Z,99489.23
2023-08-31T15:16:21.563Z,99491.27
2023-08-31T15:18:54.236Z,99495.23
2023-08-31T15:21:26.855Z,99495.77
2023-08-31T15:23:59.298Z,99493.77
2023-08-31T15:26:31.781Z,99494.50
2023-08-31T15:29:05.319Z,99496.39
2023-08-31T15:31:37.829Z,99495.02
2023-08-31T15:34:11.666Z,99496.89
2023-08-31T15:36:44.149Z,99501.52
2023-08-31T15:39:16.636Z,99504.23
2023-08-31T15:41:49.317Z,99500.14
2023-08-31T15:44:22.058Z,99505.20
2023-08-31T15:46:55.006Z,99504.56
2023-08-31T15:49:27.758Z,99506.98
2023-08-31T15:52:00.966Z,99514.09
2023-08-31T15:54:33.774Z,99517.23
2023-08-31T15:57:07.984Z,99520.47
2023-08-31T15:59:41.105Z,99519.05
2023-08-31T16:02:16.790Z,99515.98
2023-08-31T16:04:49.764Z,99516.84
2023-08-31T16:07:22.154Z,99516.54
2023-08-31T16:09:55.309Z,99511.36
2023-08-31T16:12:27.919Z,99511.23
2023-08-31T16:15:00.626Z,99511.45
2023-08-31T16:17:33.278Z,99517.64
2023-08-31T16:20:06.548Z,99526.23
2023-08-31T16:22:39.438Z,99536.34
2023-08-31T16:25:14.060Z,99543.25
2023-08-31T16:27:44.865Z,99543.02
2023-08-31T16:30:18.063Z,99542.25
2023-08-31T16:32:50.471Z,99542.73
2023-08-31T16:35:22.998Z,99536.44
2023-08-31T16:37:55.400Z,99535.95
2023-08-31T16:40:28.141Z,99534.30
2023-08-31T16:43:00.601Z,99535.33
2023-08-31T16:45:32.994Z,99537.14
2023-08-31T16:48:06.188Z,99538.09
2023-08-31T16:50:39.526Z,99547.95
2023-08-31T16:53:11.880Z,99552.71
2023-08-31T16:55:44.343Z,99551.48
2023-08-31T16:58:17.290Z,99554.45
2023-08-31T17:00:50.076Z,99559.52
2023-08-31T17:03:22.536Z,99559.04
2023-08-31T17:05:56.461Z,99556.49
2023-08-31T17:08:28.782Z,99552.92
2023-08-31T17:11:05.735Z,99556.54
2023-08-31T17:13:38.160Z,99559.98
2023-08-31T17:16:14.108Z,99565.20
2023-08-31T17:18:46.608Z,99567.11
2023-08-31T17:21:19.451Z,99567.22
2023-08-31T17:23:52.679Z,99571.22
2023-08-31T17:26:33.266Z,99569.27
2023-08-31T17:29:09.140Z,99574.91
2023-08-31T17:31:43.366Z,99575.31
2023-08-31T17:34:20.838Z,99573.66
2023-08-31T17:36:56.106Z,99575.02
2023-08-31T17:39:37.116Z,99578.27
2023-08-31T17:42:12.183Z,99579.66
2023-08-31T17:44:46.522Z,99581.48
2023-08-31T17:47:20.791Z,99585.34
2023-08-31T17:49:54.115Z,99590.70
2023-08-31T17:52:26.995Z,99596.48
2023-08-31T17:54:59.530Z,99605.88
2023-08-31T17:57:33.322Z,99609.25
2023-08-31T18:00:09.839Z,99613.84
2023-08-31T18:02:43.938Z,99617.30
2023-08-31T18:05:22.593Z,99620.70
2023-08-31T18:08:05.295Z,99624.29
2023-08-31T18:10:49.953Z,99623.55
2023-08-31T18:13:28.625Z,99626.63
2023-08-31T18:16:04.875Z,99630.38
2023-08-31T18:18:46.289Z,99632.45
2023-08-31T18:21:27.931Z,99637.10
2023-08-31T18:24:04.279Z,99635.51
2023-08-31T18:26:40.155Z,99638.05
2023-08-31T18:29:14.363Z,99642.73
2023-08-31T18:31:47.461Z,99645.73
2023-08-31T18:34:20.518Z,99644.88
2023-08-31T18:36:52.860Z,99649.20
2023-08-31T18:39:26.584Z,99654.63
2023-08-31T18:41:59.039Z,99654.15
2023-08-31T18:44:31.595Z,99656.01
2023-08-31T18:47:04.143Z,99659.61
2023-08-31T18:49:36.633Z,99659.89
2023-08-31T18:52:09.478Z,99657.75
2023-08-31T18:54:42.164Z,99652.84
2023-08-31T18:57:14.932Z,99651.89
2023-08-31T18:59:48.016Z,99654.66
2023-08-31T19:02:22.418Z,99655.59
2023-08-31T19:04:55.681Z,99654.09
2023-08-31T19:07:28.349Z,99651.90
2023-08-31T19:10:08.219Z,99651.89
2023-08-31T19:12:42.768Z,99655.83
2023-08-31T19:15:15.320Z,99654.94
2023-08-31T19:17:48.217Z,99657.19
2023-08-31T19:20:20.989Z,99653.99
2023-08-31T19:22:53.558Z,99654.59
2023-08-31T19:25:30.545Z,99652.93
2023-08-31T19:28:07.624Z,99657.94
2023-08-31T19:30:40.186Z,99657.80
2023-08-31T19:33:12.506Z,99659.40
2023-08-31T19:35:58.789Z,99666.05
2023-08-31T19:38:32.090Z,99664.86
2023-08-31T19:41:04.929Z,99665.41
2023-08-31T19:43:37.729Z,99663.56
2023-08-31T19:46:14.278Z,99663.73
2023-08-31T19:48:47.364Z,99658.90
2023-08-31T19:51:19.754Z,99666.02
2023-08-31T19:53:52.158Z,99669.98
2023-08-31T19:56:24.625Z,99672.10
2023-08-31T19:59:03.099Z,99673.45
2023-08-31T20:01:36.140Z,99676.35
2023-08-31T20:04:10.516Z,99678.98
2023-08-31T20:06:42.913Z,99677.04
2023-08-31T20:09:16.021Z,99683.23
2023-08-31T20:11:48.382Z,99681.91
2023-08-31T20:14:20.746Z,99683.20
2023-08-31T20:16:53.495Z,99688.17
2023-08-31T20:19:26.193Z,99692.98
2023-08-31T20:22:00.510Z,99694.83
2023-08-31T20:24:33.421Z,99700.15
2023-08-31T20:27:06.897Z,99701.99
2023-08-31T20:29:39.618Z,99704.40
2023-08-31T20:32:11.987Z,99706.29
2023-08-31T20:34:47.310Z,99708.38
2023-08-31T20:37:20.361Z,99709.72
2023-08-31T20:39:52.810Z,99709.62
2023-08-31T20:42:25.683Z,99713.86
2023-08-31T20:44:59.270Z,99709.04
2023-08-31T20:47:31.954Z,99709.35
2023-08-31T20:50:05.777Z,99713.23
2023-08-31T20:52:38.131Z,99711.31
2023-08-31T20:55:11.778Z,99708.83
2023-08-31T20:57:44.578Z,99707.41
2023-08-31T21:00:17.692Z,99708.69
2023-08-31T21:02:51.162Z,99714.14
2023-08-31T21:05:24.248Z,99710.14
2023-08-31T21:07:57.029Z,99713.14
2023-08-31T21:10:29.681Z,99718.74
2023-08-31T21:13:02.800Z,99720.77
2023-08-31T21:15:36.490Z,99725.35
2023-08-31T21:18:10.684Z,99724.85
2023-08-31T21:20:43.046Z,99727.34
2023-08-31T21:23:15.652Z,99726.84
2023-08-31T21:25:48.576Z,99723.05
2023-08-31T21:28:21.547Z,99722.16
2023-08-31T21:30:54.815Z,99729.94
2023-08-31T21:33:27.255Z,99728.86
2023-08-31T21:36:01.311Z,99725.39
2023-08-31T21:38:33.794Z,99730.49
2023-08-31T21:41:07.302Z,99732.03
2023-08-31T21:43:39.956Z,99732.58
2023-08-31T21:46:12.411Z,99733.40
2023-08-31T21:48:46.727Z,99736.33
2023-08-31T21:51:19.037Z,99733.98
2023-08-31T21:53:51.730Z,99733.86
2023-08-31T21:56:24.620Z,99732.27
2023-08-31T21:58:56.907Z,99733.27
2023-08-31T22:01:29.298Z,99730.66
2023-08-31T22:04:02.536Z,99730.88
2023-08-31T22:06:35.381Z,99728.38
2023-08-31T22:09:08.211Z,99730.33
2023-08-31T22:11:40.522Z,99731.80
2023-08-31T22:14:13.817Z,99730.95
2023-08-31T22:16:46.569Z,99731.29
2023-08-31T22:19:19.027Z,99729.37
2023-08-31T22:21:51.661Z,99730.92
2023-08-31T22:24:24.473Z,99733.35
2023-08-31T22:26:56.959Z,99733.73
2023-08-31T22:29:29.330Z,99733.66
2023-08-31T22:32:01.874Z,99730.93
2023-08-31T22:34:34.350Z,99734.33
2023-08-31T22:37:07.050Z,99735.15
2023-08-31T22:39:40.136Z,99736.19
2023-08-31T22:42:13.404Z,99729.19
2023-08-31T22:44:46.030Z,99732.71
2023-08-31T22:47:19.107Z,99730.42
2023-08-31T22:49:53.707Z,99730.10
2023-08-31T22:52:26.773Z,99724.39
2023-08-31T22:54:59.686Z,99725.21
2023-08-31T22:57:32.996Z,99726.77
2023-08-31T23:00:08.067Z,99729.07
2023-08-31T23:02:40.888Z,99726.39
2023-08-31T23:05:13.484Z,99726.68
2023-08-31T23:07:46.259Z,99727.16
2023-08-31T23:10:26.917Z,99726.02
2023-08-31T23:13:04.611Z,99725.34
2023-08-31T23:15:39.994Z,99731.43
2023-08-31T23:18:13.484Z,99730.66
2023-08-31T23:20:46.574Z,99727.04
2023-08-31T23:23:19.670Z,99726.30
2023-08-31T23:25:52.339Z,99726.84
2023-08-31T23:28:24.876Z,99729.21
2023-08-31T23:30:57.312Z,99724.96
2023-08-31T23:33:29.915Z,99727.13
2023-08-31T23:36:02.875Z,99730.80
2023-08-31T23:38:35.338Z,99732.69
2023-08-31T23:41:07.962Z,99733.27
2023-08-31T23:43:40.944Z,99733.47
2023-08-31T23:46:13.425Z,99729.60
2023-08-31T23:48:46.053Z,99732.98
2023-08-31T23:51:18.373Z,99741.92
2023-08-31T23:53:50.814Z,99741.74
2023-08-31T23:56:24.204Z,99741.83
2023-08-31T23:58:57.174Z,99742.67
